sensor_id;sensor_type;location;lat;lon;timestamp;temperature;humidity
42135;DHT22;28312;43.460;11.810;2023-04-25T00:03:24;10.20;59.80
42135;DHT22;28312;43.460;11.810;2023-04-25T00:07:28;10.10;59.80
42135;DHT22;28312;43.460;11.810;2023-04-25T00:11:32;10.00;59.90
42135;DHT22;28312;43.460;11.810;2023-04-25T00:15:35;9.80;59.90
42135;DHT22;28312;43.460;11.810;2023-04-25T00:19:41;9.70;60.10
42135;DHT22;28312;43.460;11.810;2023-04-25T00:23:44;9.50;60.20
42135;DHT22;28312;43.460;11.810;2023-04-25T00:27:49;9.50;60.30
42135;DHT22;28312;43.460;11.810;2023-04-25T00:31:52;9.50;60.30
42135;DHT22;28312;43.460;11.810;2023-04-25T00:35:56;9.40;60.40
42135;DHT22;28312;43.460;11.810;2023-04-25T00:39:59;9.30;60.70
42135;DHT22;28312;43.460;11.810;2023-04-25T00:44:04;9.30;60.70
42135;DHT22;28312;43.460;11.810;2023-04-25T00:48:11;9.30;60.80
42135;DHT22;28312;43.460;11.810;2023-04-25T00:52:14;9.30;60.90
42135;DHT22;28312;43.460;11.810;2023-04-25T00:56:18;9.40;60.90
42135;DHT22;28312;43.460;11.810;2023-04-25T01:00:23;9.50;60.90
42135;DHT22;28312;43.460;11.810;2023-04-25T01:04:27;9.50;61.00
42135;DHT22;28312;43.460;11.810;2023-04-25T01:08:32;9.50;60.80
42135;DHT22;28312;43.460;11.810;2023-04-25T01:12:37;9.50;60.80
42135;DHT22;28312;43.460;11.810;2023-04-25T01:16:40;9.40;60.80
42135;DHT22;28312;43.460;11.810;2023-04-25T01:20:45;9.40;60.90
42135;DHT22;28312;43.460;11.810;2023-04-25T01:24:49;9.30;60.90
42135;DHT22;28312;43.460;11.810;2023-04-25T01:28:53;9.30;61.00
42135;DHT22;28312;43.460;11.810;2023-04-25T01:32:57;9.40;61.10
42135;DHT22;28312;43.460;11.810;2023-04-25T01:37:04;9.40;61.00
42135;DHT22;28312;43.460;11.810;2023-04-25T01:41:07;9.40;61.10
42135;DHT22;28312;43.460;11.810;2023-04-25T01:45:12;9.40;61.20
42135;DHT22;28312;43.460;11.810;2023-04-25T01:49:15;9.50;61.50
42135;DHT22;28312;43.460;11.810;2023-04-25T01:53:20;9.60;61.60
42135;DHT22;28312;43.460;11.810;2023-04-25T01:57:23;9.70;61.70
42135;DHT22;28312;43.460;11.810;2023-04-25T02:01:28;9.70;62.00
42135;DHT22;28312;43.460;11.810;2023-04-25T02:05:52;9.80;62.30
42135;DHT22;28312;43.460;11.810;2023-04-25T02:09:56;9.80;62.60
42135;DHT22;28312;43.460;11.810;2023-04-25T02:14:02;9.80;62.50
42135;DHT22;28312;43.460;11.810;2023-04-25T02:18:25;9.80;62.70
42135;DHT22;28312;43.460;11.810;2023-04-25T02:22:29;9.80;62.60
42135;DHT22;28312;43.460;11.810;2023-04-25T02:26:34;9.80;62.70
42135;DHT22;28312;43.460;11.810;2023-04-25T02:30:38;9.90;62.70
42135;DHT22;28312;43.460;11.810;2023-04-25T02:34:42;9.90;62.70
42135;DHT22;28312;43.460;11.810;2023-04-25T02:38:46;9.90;62.70
42135;DHT22;28312;43.460;11.810;2023-04-25T02:42:49;10.00;62.70
42135;DHT22;28312;43.460;11.810;2023-04-25T02:46:54;10.00;62.80
42135;DHT22;28312;43.460;11.810;2023-04-25T02:50:59;10.10;62.80
42135;DHT22;28312;43.460;11.810;2023-04-25T02:55:05;10.10;62.80
42135;DHT22;28312;43.460;11.810;2023-04-25T02:59:10;10.10;62.80
42135;DHT22;28312;43.460;11.810;2023-04-25T03:03:13;10.10;63.00
42135;DHT22;28312;43.460;11.810;2023-04-25T03:07:18;10.10;62.90
42135;DHT22;28312;43.460;11.810;2023-04-25T03:11:25;10.10;62.80
42135;DHT22;28312;43.460;11.810;2023-04-25T03:15:29;10.00;62.80
42135;DHT22;28312;43.460;11.810;2023-04-25T03:19:34;10.00;62.80
42135;DHT22;28312;43.460;11.810;2023-04-25T03:23:38;9.90;62.80
42135;DHT22;28312;43.460;11.810;2023-04-25T03:27:43;9.80;63.10
42135;DHT22;28312;43.460;11.810;2023-04-25T03:31:47;9.80;63.20
42135;DHT22;28312;43.460;11.810;2023-04-25T03:35:51;9.70;63.30
42135;DHT22;28312;43.460;11.810;2023-04-25T03:39:55;9.70;63.30
42135;DHT22;28312;43.460;11.810;2023-04-25T03:44:02;9.60;63.30
42135;DHT22;28312;43.460;11.810;2023-04-25T03:48:06;9.60;63.30
42135;DHT22;28312;43.460;11.810;2023-04-25T03:52:10;9.50;63.50
42135;DHT22;28312;43.460;11.810;2023-04-25T03:56:16;9.50;63.60
42135;DHT22;28312;43.460;11.810;2023-04-25T04:00:22;9.60;63.60
42135;DHT22;28312;43.460;11.810;2023-04-25T04:04:28;9.60;63.60
42135;DHT22;28312;43.460;11.810;2023-04-25T04:08:32;9.50;63.50
42135;DHT22;28312;43.460;11.810;2023-04-25T04:12:37;9.50;63.50
42135;DHT22;28312;43.460;11.810;2023-04-25T04:16:40;9.50;63.60
42135;DHT22;28312;43.460;11.810;2023-04-25T04:20:44;9.60;63.50
42135;DHT22;28312;43.460;11.810;2023-04-25T04:24:48;9.50;63.60
42135;DHT22;28312;43.460;11.810;2023-04-25T04:29:04;9.50;63.70
42135;DHT22;28312;43.460;11.810;2023-04-25T04:33:32;9.60;63.80
42135;DHT22;28312;43.460;11.810;2023-04-25T04:37:38;9.60;63.60
42135;DHT22;28312;43.460;11.810;2023-04-25T04:41:46;9.60;63.70
42135;DHT22;28312;43.460;11.810;2023-04-25T04:46:05;9.70;63.90
42135;DHT22;28312;43.460;11.810;2023-04-25T04:50:27;9.70;64.00
42135;DHT22;28312;43.460;11.810;2023-04-25T04:54:56;9.70;64.10
42135;DHT22;28312;43.460;11.810;2023-04-25T04:59:18;9.80;64.20
42135;DHT22;28312;43.460;11.810;2023-04-25T05:03:42;9.90;64.20
42135;DHT22;28312;43.460;11.810;2023-04-25T05:07:58;10.10;64.30
42135;DHT22;28312;43.460;11.810;2023-04-25T05:12:31;10.20;64.30
42135;DHT22;28312;43.460;11.810;2023-04-25T05:16:48;10.20;64.40
42135;DHT22;28312;43.460;11.810;2023-04-25T05:21:01;10.30;64.50
42135;DHT22;28312;43.460;11.810;2023-04-25T05:25:23;10.30;64.90
42135;DHT22;28312;43.460;11.810;2023-04-25T05:29:42;10.30;65.30
42135;DHT22;28312;43.460;11.810;2023-04-25T05:34:08;10.30;65.80
42135;DHT22;28312;43.460;11.810;2023-04-25T05:38:19;10.40;66.10
42135;DHT22;28312;43.460;11.810;2023-04-25T05:42:41;10.40;66.60
42135;DHT22;28312;43.460;11.810;2023-04-25T05:47:11;10.40;66.60
42135;DHT22;28312;43.460;11.810;2023-04-25T05:51:32;10.40;67.20
42135;DHT22;28312;43.460;11.810;2023-04-25T05:55:54;10.50;67.50
42135;DHT22;28312;43.460;11.810;2023-04-25T06:00:01;10.70;67.50
42135;DHT22;28312;43.460;11.810;2023-04-25T06:04:20;10.90;67.60
42135;DHT22;28312;43.460;11.810;2023-04-25T06:08:24;11.00;67.60
42135;DHT22;28312;43.460;11.810;2023-04-25T06:12:28;11.20;67.50
42135;DHT22;28312;43.460;11.810;2023-04-25T06:16:32;11.30;67.20
42135;DHT22;28312;43.460;11.810;2023-04-25T06:20:36;11.50;67.00
42135;DHT22;28312;43.460;11.810;2023-04-25T06:24:40;11.60;67.40
42135;DHT22;28312;43.460;11.810;2023-04-25T06:28:43;11.70;67.40
42135;DHT22;28312;43.460;11.810;2023-04-25T06:32:48;11.90;67.30
42135;DHT22;28312;43.460;11.810;2023-04-25T06:36:54;11.90;67.50
42135;DHT22;28312;43.460;11.810;2023-04-25T06:40:58;11.90;67.70
42135;DHT22;28312;43.460;11.810;2023-04-25T06:45:06;12.00;67.60
42135;DHT22;28312;43.460;11.810;2023-04-25T06:49:11;12.20;69.10
42135;DHT22;28312;43.460;11.810;2023-04-25T06:53:15;12.40;68.80
42135;DHT22;28312;43.460;11.810;2023-04-25T06:57:22;12.60;68.50
42135;DHT22;28312;43.460;11.810;2023-04-25T07:01:26;12.60;68.20
42135;DHT22;28312;43.460;11.810;2023-04-25T07:05:30;12.50;68.40
42135;DHT22;28312;43.460;11.810;2023-04-25T07:09:34;12.60;69.50
42135;DHT22;28312;43.460;11.810;2023-04-25T07:13:38;12.90;69.70
42135;DHT22;28312;43.460;11.810;2023-04-25T07:17:42;13.30;69.50
42135;DHT22;28312;43.460;11.810;2023-04-25T07:21:46;13.50;68.70
42135;DHT22;28312;43.460;11.810;2023-04-25T07:25:50;13.70;68.90
42135;DHT22;28312;43.460;11.810;2023-04-25T07:29:59;13.90;68.50
42135;DHT22;28312;43.460;11.810;2023-04-25T07:34:03;13.90;67.80
42135;DHT22;28312;43.460;11.810;2023-04-25T07:38:07;13.80;68.00
42135;DHT22;28312;43.460;11.810;2023-04-25T07:42:11;13.80;68.00
42135;DHT22;28312;43.460;11.810;2023-04-25T07:46:18;13.80;68.40
42135;DHT22;28312;43.460;11.810;2023-04-25T07:50:23;13.90;68.30
42135;DHT22;28312;43.460;11.810;2023-04-25T07:54:28;14.00;68.30
42135;DHT22;28312;43.460;11.810;2023-04-25T07:58:38;14.10;68.20
42135;DHT22;28312;43.460;11.810;2023-04-25T08:02:45;14.20;68.00
42135;DHT22;28312;43.460;11.810;2023-04-25T08:06:52;14.20;68.20
42135;DHT22;28312;43.460;11.810;2023-04-25T08:11:03;14.50;68.30
42135;DHT22;28312;43.460;11.810;2023-04-25T08:15:07;14.70;68.30
42135;DHT22;28312;43.460;11.810;2023-04-25T08:19:14;15.00;67.60
42135;DHT22;28312;43.460;11.810;2023-04-25T08:23:18;15.00;67.00
42135;DHT22;28312;43.460;11.810;2023-04-25T08:27:37;15.00;66.70
42135;DHT22;28312;43.460;11.810;2023-04-25T08:31:41;15.00;66.60
42135;DHT22;28312;43.460;11.810;2023-04-25T08:35:45;15.00;66.60
42135;DHT22;28312;43.460;11.810;2023-04-25T08:39:50;15.00;66.60
42135;DHT22;28312;43.460;11.810;2023-04-25T08:44:16;15.10;67.10
42135;DHT22;28312;43.460;11.810;2023-04-25T08:48:21;15.40;67.50
42135;DHT22;28312;43.460;11.810;2023-04-25T08:52:28;16.00;67.60
42135;DHT22;28312;43.460;11.810;2023-04-25T08:56:34;16.30;66.50
42135;DHT22;28312;43.460;11.810;2023-04-25T09:00:39;16.40;66.10
42135;DHT22;28312;43.460;11.810;2023-04-25T09:04:44;16.60;66.20
42135;DHT22;28312;43.460;11.810;2023-04-25T09:08:50;16.90;66.40
42135;DHT22;28312;43.460;11.810;2023-04-25T09:13:07;17.50;66.60
42135;DHT22;28312;43.460;11.810;2023-04-25T09:17:58;17.90;65.50
42135;DHT22;28312;43.460;11.810;2023-04-25T09:22:08;18.00;65.10
42135;DHT22;28312;43.460;11.810;2023-04-25T09:26:17;18.20;65.30
42135;DHT22;28312;43.460;11.810;2023-04-25T09:30:33;18.50;64.80
42135;DHT22;28312;43.460;11.810;2023-04-25T09:34:53;18.60;63.70
42135;DHT22;28312;43.460;11.810;2023-04-25T09:38:59;18.40;63.30
42135;DHT22;28312;43.460;11.810;2023-04-25T09:43:21;18.10;63.40
42135;DHT22;28312;43.460;11.810;2023-04-25T09:47:26;17.90;63.60
42135;DHT22;28312;43.460;11.810;2023-04-25T09:51:32;17.80;64.10
42135;DHT22;28312;43.460;11.810;2023-04-25T09:55:38;18.10;64.40
42135;DHT22;28312;43.460;11.810;2023-04-25T09:59:45;18.40;63.90
42135;DHT22;28312;43.460;11.810;2023-04-25T10:03:49;18.70;63.50
42135;DHT22;28312;43.460;11.810;2023-04-25T10:08:13;18.70;62.30
42135;DHT22;28312;43.460;11.810;2023-04-25T10:12:17;18.70;61.60
42135;DHT22;28312;43.460;11.810;2023-04-25T10:16:21;18.60;61.70
42135;DHT22;28312;43.460;11.810;2023-04-25T10:20:26;18.70;61.40
42135;DHT22;28312;43.460;11.810;2023-04-25T10:24:29;18.70;61.30
42135;DHT22;28312;43.460;11.810;2023-04-25T10:28:59;19.00;61.40
42135;DHT22;28312;43.460;11.810;2023-04-25T10:33:16;19.20;61.60
42135;DHT22;28312;43.460;11.810;2023-04-25T10:37:20;19.60;60.40
42135;DHT22;28312;43.460;11.810;2023-04-25T10:41:25;19.60;59.60
42135;DHT22;28312;43.460;11.810;2023-04-25T10:45:28;19.40;59.30
42135;DHT22;28312;43.460;11.810;2023-04-25T10:49:35;19.30;59.30
42135;DHT22;28312;43.460;11.810;2023-04-25T10:53:39;19.40;59.40
42135;DHT22;28312;43.460;11.810;2023-04-25T10:57:44;19.70;60.10
42135;DHT22;28312;43.460;11.810;2023-04-25T11:01:53;20.40;60.30
42135;DHT22;28312;43.460;11.810;2023-04-25T11:06:02;20.80;58.00
42135;DHT22;28312;43.460;11.810;2023-04-25T11:10:06;20.70;57.10
42135;DHT22;28312;43.460;11.810;2023-04-25T11:14:10;20.40;56.90
42135;DHT22;28312;43.460;11.810;2023-04-25T11:18:16;20.20;57.50
42135;DHT22;28312;43.460;11.810;2023-04-25T11:22:21;20.50;58.20
42135;DHT22;28312;43.460;11.810;2023-04-25T11:26:25;21.10;57.70
42135;DHT22;28312;43.460;11.810;2023-04-25T11:30:29;21.50;56.50
42135;DHT22;28312;43.460;11.810;2023-04-25T11:34:34;21.70;56.70
42135;DHT22;28312;43.460;11.810;2023-04-25T11:38:37;21.90;55.80
42135;DHT22;28312;43.460;11.810;2023-04-25T11:42:45;22.10;55.80
42135;DHT22;28312;43.460;11.810;2023-04-25T11:46:49;22.00;54.60
42135;DHT22;28312;43.460;11.810;2023-04-25T11:50:54;21.70;53.90
42135;DHT22;28312;43.460;11.810;2023-04-25T11:54:58;21.50;53.90
42135;DHT22;28312;43.460;11.810;2023-04-25T11:59:04;21.40;54.40
42135;DHT22;28312;43.460;11.810;2023-04-25T12:03:09;21.40;54.00
42135;DHT22;28312;43.460;11.810;2023-04-25T12:07:13;21.30;54.00
42135;DHT22;28312;43.460;11.810;2023-04-25T12:11:23;21.40;54.40
42135;DHT22;28312;43.460;11.810;2023-04-25T12:15:26;21.60;54.30
42135;DHT22;28312;43.460;11.810;2023-04-25T12:19:36;21.70;53.90
42135;DHT22;28312;43.460;11.810;2023-04-25T12:23:43;22.00;54.90
42135;DHT22;28312;43.460;11.810;2023-04-25T12:27:47;22.20;54.00
42135;DHT22;28312;43.460;11.810;2023-04-25T12:31:54;22.20;53.40
42135;DHT22;28312;43.460;11.810;2023-04-25T12:35:59;22.10;53.30
42135;DHT22;28312;43.460;11.810;2023-04-25T12:40:03;21.90;53.00
42135;DHT22;28312;43.460;11.810;2023-04-25T12:44:07;21.80;53.50
42135;DHT22;28312;43.460;11.810;2023-04-25T12:48:12;21.90;53.70
42135;DHT22;28312;43.460;11.810;2023-04-25T12:52:16;22.10;53.80
42135;DHT22;28312;43.460;11.810;2023-04-25T12:56:20;22.20;52.70
42135;DHT22;28312;43.460;11.810;2023-04-25T13:00:27;22.20;53.00
42135;DHT22;28312;43.460;11.810;2023-04-25T13:04:32;22.20;52.40
42135;DHT22;28312;43.460;11.810;2023-04-25T13:08:35;22.00;51.80
42135;DHT22;28312;43.460;11.810;2023-04-25T13:12:40;21.70;51.40
42135;DHT22;28312;43.460;11.810;2023-04-25T13:16:43;21.80;53.00
42135;DHT22;28312;43.460;11.810;2023-04-25T13:20:47;22.20;52.60
42135;DHT22;28312;43.460;11.810;2023-04-25T13:24:50;22.50;52.50
42135;DHT22;28312;43.460;11.810;2023-04-25T13:28:54;22.60;51.80
42135;DHT22;28312;43.460;11.810;2023-04-25T13:32:57;22.70;51.50
42135;DHT22;28312;43.460;11.810;2023-04-25T13:37:06;22.70;51.00
42135;DHT22;28312;43.460;11.810;2023-04-25T13:41:10;22.60;51.00
42135;DHT22;28312;43.460;11.810;2023-04-25T13:45:17;22.50;50.60
42135;DHT22;28312;43.460;11.810;2023-04-25T13:49:21;22.20;50.40
42135;DHT22;28312;43.460;11.810;2023-04-25T13:53:26;21.90;50.40
42135;DHT22;28312;43.460;11.810;2023-04-25T13:57:33;21.60;50.30
42135;DHT22;28312;43.460;11.810;2023-04-25T14:01:37;20.70;48.40
42135;DHT22;28312;43.460;11.810;2023-04-25T14:05:41;19.20;49.90
42135;DHT22;28312;43.460;11.810;2023-04-25T14:09:45;17.70;52.60
42135;DHT22;28312;43.460;11.810;2023-04-25T14:13:49;16.30;55.10
42135;DHT22;28312;43.460;11.810;2023-04-25T14:17:52;15.50;56.70
42135;DHT22;28312;43.460;11.810;2023-04-25T14:21:56;14.90;58.70
42135;DHT22;28312;43.460;11.810;2023-04-25T14:26:00;14.70;60.10
42135;DHT22;28312;43.460;11.810;2023-04-25T14:30:04;14.70;61.40
42135;DHT22;28312;43.460;11.810;2023-04-25T14:34:08;14.70;62.30
42135;DHT22;28312;43.460;11.810;2023-04-25T14:38:12;14.70;63.50
42135;DHT22;28312;43.460;11.810;2023-04-25T14:42:16;14.80;64.40
42135;DHT22;28312;43.460;11.810;2023-04-25T14:46:20;14.80;65.00
42135;DHT22;28312;43.460;11.810;2023-04-25T14:50:24;15.10;65.30
42135;DHT22;28312;43.460;11.810;2023-04-25T14:54:27;15.30;65.00
42135;DHT22;28312;43.460;11.810;2023-04-25T14:58:31;15.20;65.00
42135;DHT22;28312;43.460;11.810;2023-04-25T15:02:36;15.20;65.00
42135;DHT22;28312;43.460;11.810;2023-04-25T15:06:40;15.10;65.10
42135;DHT22;28312;43.460;11.810;2023-04-25T15:10:44;15.00;65.40
42135;DHT22;28312;43.460;11.810;2023-04-25T15:14:49;15.00;65.80
42135;DHT22;28312;43.460;11.810;2023-04-25T15:18:53;14.90;66.00
42135;DHT22;28312;43.460;11.810;2023-04-25T15:22:57;15.00;66.10
42135;DHT22;28312;43.460;11.810;2023-04-25T15:27:00;15.00;66.20
42135;DHT22;28312;43.460;11.810;2023-04-25T15:31:05;15.00;66.30
42135;DHT22;28312;43.460;11.810;2023-04-25T15:35:09;15.00;66.50
42135;DHT22;28312;43.460;11.810;2023-04-25T15:39:12;15.10;66.60
42135;DHT22;28312;43.460;11.810;2023-04-25T15:43:16;15.10;66.60
42135;DHT22;28312;43.460;11.810;2023-04-25T15:47:20;15.10;66.40
42135;DHT22;28312;43.460;11.810;2023-04-25T15:51:23;15.10;66.20
42135;DHT22;28312;43.460;11.810;2023-04-25T15:55:27;15.00;66.30
42135;DHT22;28312;43.460;11.810;2023-04-25T15:59:32;14.90;66.50
42135;DHT22;28312;43.460;11.810;2023-04-25T16:03:36;14.90;66.70
42135;DHT22;28312;43.460;11.810;2023-04-25T16:07:41;14.90;66.80
42135;DHT22;28312;43.460;11.810;2023-04-25T16:11:45;15.00;66.60
42135;DHT22;28312;43.460;11.810;2023-04-25T16:15:48;15.00;66.20
42135;DHT22;28312;43.460;11.810;2023-04-25T16:19:52;15.00;66.10
42135;DHT22;28312;43.460;11.810;2023-04-25T16:23:55;15.00;65.70
42135;DHT22;28312;43.460;11.810;2023-04-25T16:27:59;14.90;65.30
42135;DHT22;28312;43.460;11.810;2023-04-25T16:32:03;14.80;65.30
42135;DHT22;28312;43.460;11.810;2023-04-25T16:36:07;14.90;65.40
42135;DHT22;28312;43.460;11.810;2023-04-25T16:40:11;14.80;65.10
42135;DHT22;28312;43.460;11.810;2023-04-25T16:44:14;14.80;65.00
42135;DHT22;28312;43.460;11.810;2023-04-25T16:48:18;14.80;64.90
42135;DHT22;28312;43.460;11.810;2023-04-25T16:52:26;14.80;64.80
42135;DHT22;28312;43.460;11.810;2023-04-25T16:56:30;14.80;64.70
42135;DHT22;28312;43.460;11.810;2023-04-25T17:00:33;14.80;64.50
42135;DHT22;28312;43.460;11.810;2023-04-25T17:04:37;14.80;64.60
42135;DHT22;28312;43.460;11.810;2023-04-25T17:08:41;14.80;64.50
42135;DHT22;28312;43.460;11.810;2023-04-25T17:12:45;14.80;64.30
42135;DHT22;28312;43.460;11.810;2023-04-25T17:16:50;14.80;64.40
42135;DHT22;28312;43.460;11.810;2023-04-25T17:20:54;14.90;64.30
42135;DHT22;28312;43.460;11.810;2023-04-25T17:24:58;14.90;64.20
42135;DHT22;28312;43.460;11.810;2023-04-25T17:29:02;14.90;64.10
42135;DHT22;28312;43.460;11.810;2023-04-25T17:33:06;14.90;63.90
42135;DHT22;28312;43.460;11.810;2023-04-25T17:37:10;14.80;63.70
42135;DHT22;28312;43.460;11.810;2023-04-25T17:41:18;14.70;63.60
42135;DHT22;28312;43.460;11.810;2023-04-25T17:45:23;14.70;63.40
42135;DHT22;28312;43.460;11.810;2023-04-25T17:49:26;14.60;63.10
42135;DHT22;28312;43.460;11.810;2023-04-25T17:53:30;14.30;62.90
42135;DHT22;28312;43.460;11.810;2023-04-25T17:57:34;14.20;62.80
42135;DHT22;28312;43.460;11.810;2023-04-25T18:01:38;14.00;62.70
42135;DHT22;28312;43.460;11.810;2023-04-25T18:05:45;13.70;63.00
42135;DHT22;28312;43.460;11.810;2023-04-25T18:09:49;13.60;63.00
42135;DHT22;28312;43.460;11.810;2023-04-25T18:13:53;13.50;63.10
42135;DHT22;28312;43.460;11.810;2023-04-25T18:17:56;13.30;63.10
42135;DHT22;28312;43.460;11.810;2023-04-25T18:22:00;13.30;63.20
42135;DHT22;28312;43.460;11.810;2023-04-25T18:26:04;13.20;63.30
42135;DHT22;28312;43.460;11.810;2023-04-25T18:30:09;13.10;63.80
42135;DHT22;28312;43.460;11.810;2023-04-25T18:34:14;13.10;63.90
42135;DHT22;28312;43.460;11.810;2023-04-25T18:38:18;13.00;64.10
42135;DHT22;28312;43.460;11.810;2023-04-25T18:42:37;13.00;64.00
42135;DHT22;28312;43.460;11.810;2023-04-25T18:46:40;13.00;64.10
42135;DHT22;28312;43.460;11.810;2023-04-25T18:50:45;13.10;64.10
42135;DHT22;28312;43.460;11.810;2023-04-25T18:54:49;13.10;64.10
42135;DHT22;28312;43.460;11.810;2023-04-25T18:58:54;13.10;64.00
42135;DHT22;28312;43.460;11.810;2023-04-25T19:02:58;13.10;64.00
42135;DHT22;28312;43.460;11.810;2023-04-25T19:07:05;13.10;63.90
42135;DHT22;28312;43.460;11.810;2023-04-25T19:11:10;13.10;63.80
42135;DHT22;28312;43.460;11.810;2023-04-25T19:15:23;13.10;63.80
42135;DHT22;28312;43.460;11.810;2023-04-25T19:19:27;13.10;63.60
42135;DHT22;28312;43.460;11.810;2023-04-25T19:23:32;13.10;63.50
42135;DHT22;28312;43.460;11.810;2023-04-25T19:27:38;13.10;63.50
42135;DHT22;28312;43.460;11.810;2023-04-25T19:31:53;12.90;63.70
42135;DHT22;28312;43.460;11.810;2023-04-25T19:36:08;12.90;63.70
42135;DHT22;28312;43.460;11.810;2023-04-25T19:40:19;12.80;63.80
42135;DHT22;28312;43.460;11.810;2023-04-25T19:44:35;12.80;63.80
42135;DHT22;28312;43.460;11.810;2023-04-25T19:48:50;12.70;63.80
42135;DHT22;28312;43.460;11.810;2023-04-25T19:52:59;12.70;63.90
42135;DHT22;28312;43.460;11.810;2023-04-25T19:57:15;12.60;63.90
42135;DHT22;28312;43.460;11.810;2023-04-25T20:01:28;12.60;63.80
42135;DHT22;28312;43.460;11.810;2023-04-25T20:05:33;12.50;63.70
42135;DHT22;28312;43.460;11.810;2023-04-25T20:09:36;12.40;63.70
42135;DHT22;28312;43.460;11.810;2023-04-25T20:13:41;12.30;63.80
42135;DHT22;28312;43.460;11.810;2023-04-25T20:17:45;12.10;63.70
42135;DHT22;28312;43.460;11.810;2023-04-25T20:21:48;11.90;63.90
42135;DHT22;28312;43.460;11.810;2023-04-25T20:25:52;11.70;64.20
42135;DHT22;28312;43.460;11.810;2023-04-25T20:29:55;11.70;64.20
42135;DHT22;28312;43.460;11.810;2023-04-25T20:33:59;11.70;64.20
42135;DHT22;28312;43.460;11.810;2023-04-25T20:38:04;11.70;64.20
42135;DHT22;28312;43.460;11.810;2023-04-25T20:42:10;11.70;64.00
42135;DHT22;28312;43.460;11.810;2023-04-25T20:46:15;11.60;64.10
42135;DHT22;28312;43.460;11.810;2023-04-25T20:50:20;11.50;64.20
42135;DHT22;28312;43.460;11.810;2023-04-25T20:54:24;11.30;64.30
42135;DHT22;28312;43.460;11.810;2023-04-25T20:58:36;11.20;64.30
42135;DHT22;28312;43.460;11.810;2023-04-25T21:02:41;11.20;64.50
42135;DHT22;28312;43.460;11.810;2023-04-25T21:06:46;11.10;64.50
42135;DHT22;28312;43.460;11.810;2023-04-25T21:10:52;11.00;64.50
42135;DHT22;28312;43.460;11.810;2023-04-25T21:14:58;10.90;64.50
42135;DHT22;28312;43.460;11.810;2023-04-25T21:19:07;10.90;64.20
42135;DHT22;28312;43.460;11.810;2023-04-25T21:23:12;10.80;64.20
42135;DHT22;28312;43.460;11.810;2023-04-25T21:27:18;10.60;64.40
42135;DHT22;28312;43.460;11.810;2023-04-25T21:31:24;10.40;64.40
42135;DHT22;28312;43.460;11.810;2023-04-25T21:35:31;10.30;64.60
42135;DHT22;28312;43.460;11.810;2023-04-25T21:39:39;10.20;64.40
42135;DHT22;28312;43.460;11.810;2023-04-25T21:43:44;10.00;64.50
42135;DHT22;28312;43.460;11.810;2023-04-25T21:47:48;9.80;64.50
42135;DHT22;28312;43.460;11.810;2023-04-25T21:51:55;9.70;64.60
42135;DHT22;28312;43.460;11.810;2023-04-25T21:56:00;9.60;64.70
42135;DHT22;28312;43.460;11.810;2023-04-25T22:00:06;9.50;64.60
42135;DHT22;28312;43.460;11.810;2023-04-25T22:04:23;9.20;64.70
42135;DHT22;28312;43.460;11.810;2023-04-25T22:08:27;9.10;64.90
42135;DHT22;28312;43.460;11.810;2023-04-25T22:12:33;8.80;64.90
42135;DHT22;28312;43.460;11.810;2023-04-25T22:16:36;8.80;64.80
42135;DHT22;28312;43.460;11.810;2023-04-25T22:20:41;8.70;64.70
42135;DHT22;28312;43.460;11.810;2023-04-25T22:24:46;8.60;64.50
42135;DHT22;28312;43.460;11.810;2023-04-25T22:28:51;8.50;64.40
42135;DHT22;28312;43.460;11.810;2023-04-25T22:32:55;8.50;64.50
42135;DHT22;28312;43.460;11.810;2023-04-25T22:36:59;8.30;64.60
42135;DHT22;28312;43.460;11.810;2023-04-25T22:41:03;8.20;64.80
42135;DHT22;28312;43.460;11.810;2023-04-25T22:45:07;8.10;65.10
42135;DHT22;28312;43.460;11.810;2023-04-25T22:49:11;8.10;65.10
42135;DHT22;28312;43.460;11.810;2023-04-25T22:53:15;7.90;65.10
42135;DHT22;28312;43.460;11.810;2023-04-25T22:57:19;7.80;65.10
42135;DHT22;28312;43.460;11.810;2023-04-25T23:01:23;7.70;65.00
42135;DHT22;28312;43.460;11.810;2023-04-25T23:05:28;7.70;64.80
42135;DHT22;28312;43.460;11.810;2023-04-25T23:09:32;7.70;64.70
42135;DHT22;28312;43.460;11.810;2023-04-25T23:13:36;7.50;64.90
42135;DHT22;28312;43.460;11.810;2023-04-25T23:17:40;7.30;65.20
42135;DHT22;28312;43.460;11.810;2023-04-25T23:21:44;7.20;65.50
42135;DHT22;28312;43.460;11.810;2023-04-25T23:25:48;7.20;65.60
42135;DHT22;28312;43.460;11.810;2023-04-25T23:29:52;7.10;65.70
42135;DHT22;28312;43.460;11.810;2023-04-25T23:33:59;7.00;65.70
42135;DHT22;28312;43.460;11.810;2023-04-25T23:38:02;6.90;65.70
42135;DHT22;28312;43.460;11.810;2023-04-25T23:42:31;6.80;65.70
42135;DHT22;28312;43.460;11.810;2023-04-25T23:46:35;6.70;65.90
42135;DHT22;28312;43.460;11.810;2023-04-25T23:50:38;6.60;65.90
42135;DHT22;28312;43.460;11.810;2023-04-25T23:54:42;6.50;65.80
42135;DHT22;28312;43.460;11.810;2023-04-25T23:58:45;6.40;65.70
